Time;durP1;ratioP1;P1;durP2;ratioP2;P2;SDS_P1;SDS_P2;PMS_P1;PMS_P2;Temp;Humidity;BMP_temperature;BMP_pressure;BME280_temperature;BME280_humidity;BME280_pressure;Samples;Min_cycle;Max_cycle;Signal;HPM_P1;HPM_P2
2022/03/28 00:01:10;;;;;;;24.67;10.65;;;6.00;99.90;;;;;;5033205;28;20084;-75
2022/03/28 00:03:36;;;;;;;26.02;11.95;;;6.60;99.90;;;;;;5015458;28;20053;-75
2022/03/28 00:06:03;;;;;;;21.75;10.88;;;6.00;99.90;;;;;;5033080;28;20072;-76
2022/03/28 00:08:29;;;;;;;19.55;10.32;;;6.00;99.90;;;;;;5034376;28;20048;-75
2022/03/28 00:10:55;;;;;;;22.17;10.30;;;6.00;99.90;;;;;;5034423;28;20037;-75
2022/03/28 00:13:21;;;;;;;30.80;10.80;;;6.00;99.90;;;;;;5021625;28;20105;-76
2022/03/28 00:15:50;;;;;;;22.27;11.68;;;5.90;99.90;;;;;;5049619;28;20033;-75
2022/03/28 00:18:15;;;;;;;23.08;10.98;;;6.20;99.90;;;;;;5046933;28;20092;-76
2022/03/28 00:20:41;;;;;;;28.52;11.93;;;6.00;99.90;;;;;;5038565;28;20037;-75
2022/03/28 00:23:07;;;;;;;29.92;12.63;;;5.80;99.90;;;;;;5039700;28;20045;-76
2022/03/28 00:25:34;;;;;;;23.83;11.73;;;5.90;99.90;;;;;;5016533;28;20041;-76
2022/03/28 00:27:59;;;;;;;26.00;12.55;;;5.90;99.90;;;;;;5015705;28;20064;-76
2022/03/28 00:30:25;;;;;;;24.67;11.95;;;5.90;99.90;;;;;;5033141;28;20042;-76
2022/03/28 00:32:51;;;;;;;23.55;11.98;;;5.90;99.90;;;;;;5015363;28;20397;-76
2022/03/28 00:35:17;;;;;;;33.28;12.98;;;5.90;99.90;;;;;;5032462;28;20119;-75
2022/03/28 00:37:43;;;;;;;31.05;13.57;;;5.90;99.90;;;;;;5032873;28;20147;-76
2022/03/28 00:40:10;;;;;;;25.35;12.63;;;5.90;99.90;;;;;;5014798;28;20111;-76
2022/03/28 00:42:37;;;;;;;23.52;12.05;;;5.90;99.90;;;;;;5032976;28;20141;-76
2022/03/28 00:45:06;;;;;;;21.92;11.35;;;5.90;99.90;;;;;;5032888;28;20132;-75
2022/03/28 00:47:33;;;;;;;46.63;12.27;;;5.90;99.90;;;;;;5015154;28;20052;-76
2022/03/28 00:49:58;;;;;;;41.72;13.07;;;5.90;99.90;;;;;;5032424;28;20045;-77
2022/03/28 00:52:24;;;;;;;25.33;11.00;;;5.80;99.90;;;;;;5014178;28;20056;-76
2022/03/28 00:54:50;;;;;;;22.02;9.93;;;5.80;99.90;;;;;;5032557;28;20085;-75
2022/03/28 00:57:17;;;;;;;42.83;12.65;;;5.80;99.90;;;;;;5032782;28;20445;-75
2022/03/28 00:59:43;;;;;;;25.05;12.60;;;5.80;99.90;;;;;;5032828;28;20049;-76
2022/03/28 01:02:09;;;;;;;24.25;11.30;;;5.80;99.90;;;;;;5014753;28;20049;-76
2022/03/28 01:04:37;;;;;;;21.95;10.25;;;5.80;99.90;;;;;;5032726;28;20040;-75
2022/03/28 01:07:07;;;;;;;27.02;9.98;;;6.00;99.90;;;;;;5031859;28;20045;-76
2022/03/28 01:09:33;;;;;;;21.00;9.85;;;5.80;99.90;;;;;;5022024;28;20049;-74
2022/03/28 01:12:00;;;;;;;22.35;9.45;;;5.80;99.90;;;;;;5036689;28;20448;-76
2022/03/28 01:14:26;;;;;;;20.17;9.27;;;5.80;99.90;;;;;;5036694;28;20049;-76
2022/03/28 01:19:36;;;;;;;19.63;9.10;;;5.70;99.90;;;;;;5038472;28;20063;-73
2022/03/28 01:22:02;;;;;;;39.88;9.55;;;5.80;99.90;;;;;;5037435;28;20409;-76
2022/03/28 01:24:28;;;;;;;18.08;9.07;;;5.80;99.90;;;;;;5056248;28;20349;-75
2022/03/28 01:26:55;;;;;;;28.42;10.27;;;5.70;99.90;;;;;;5058890;28;20040;-75
2022/03/28 01:29:20;;;;;;;27.65;10.52;;;5.70;99.90;;;;;;5061974;28;20481;-76
2022/03/28 01:31:46;;;;;;;21.92;10.32;;;5.70;99.90;;;;;;5043596;28;20041;-76
2022/03/28 01:34:17;;;;;;;19.88;9.35;;;5.70;99.90;;;;;;5025424;28;20052;-75
2022/03/28 01:36:44;;;;;;;20.23;9.38;;;5.70;99.90;;;;;;5056560;28;20090;-76
2022/03/28 01:39:10;;;;;;;19.73;9.32;;;5.70;99.90;;;;;;5055873;28;20045;-75
2022/03/28 01:41:36;;;;;;;21.33;10.20;;;5.70;99.90;;;;;;5038715;28;20438;-76
2022/03/28 01:44:01;;;;;;;19.38;9.68;;;5.70;99.90;;;;;;5055906;28;20044;-76
2022/03/28 01:46:27;;;;;;;20.73;8.90;;;5.70;99.90;;;;;;5055891;28;20392;-76
2022/03/28 01:48:53;;;;;;;21.23;10.07;;;5.70;99.90;;;;;;5037790;28;20044;-75
2022/03/28 01:51:18;;;;;;;24.30;10.43;;;5.70;99.90;;;;;;5037650;28;20045;-77
2022/03/28 01:53:44;;;;;;;20.13;10.25;;;5.70;99.90;;;;;;5055253;28;20041;-76
2022/03/28 01:56:10;;;;;;;22.77;10.07;;;5.70;99.90;;;;;;5037543;28;20075;-75
2022/03/28 01:58:35;;;;;;;24.17;11.23;;;5.70;99.90;;;;;;5038122;28;20451;-76
2022/03/28 02:01:01;;;;;;;24.05;11.52;;;5.70;99.90;;;;;;5038033;28;20044;-76
2022/03/28 02:03:26;;;;;;;27.98;11.60;;;5.70;99.90;;;;;;5055279;28;20047;-76
2022/03/28 02:05:52;;;;;;;21.40;10.57;;;5.70;99.90;;;;;;5037500;28;20044;-75
2022/03/28 02:08:18;;;;;;;25.42;12.07;;;5.60;99.90;;;;;;5055684;28;20037;-75
2022/03/28 02:10:43;;;;;;;24.60;11.30;;;5.60;99.90;;;;;;5037585;28;20496;-75
2022/03/28 02:13:09;;;;;;;23.58;10.30;;;5.70;99.90;;;;;;5050605;28;20051;-75
2022/03/28 02:15:35;;;;;;;19.48;10.45;;;5.60;99.90;;;;;;5073517;28;20021;-75
2022/03/28 02:18:00;;;;;;;27.23;10.38;;;5.60;99.90;;;;;;5061808;28;20179;-76
2022/03/28 02:20:27;;;;;;;25.88;11.95;;;5.60;99.90;;;;;;5056634;28;20048;-76
2022/03/28 02:22:52;;;;;;;22.58;11.60;;;5.60;99.90;;;;;;5038420;28;20187;-75
2022/03/28 02:25:19;;;;;;;27.55;11.60;;;5.60;99.90;;;;;;5055703;28;20080;-76
2022/03/28 02:27:45;;;;;;;22.35;11.05;;;5.60;99.90;;;;;;5055536;28;20060;-75
2022/03/28 02:30:13;;;;;;;22.85;11.60;;;5.60;99.90;;;;;;5037402;28;20053;-76
2022/03/28 02:32:39;;;;;;;27.70;11.57;;;5.70;99.90;;;;;;5055181;28;20052;-76
2022/03/28 02:35:06;;;;;;;22.45;11.65;;;5.70;99.90;;;;;;5037330;28;20049;-76
2022/03/28 02:37:32;;;;;;;20.65;10.80;;;5.70;99.90;;;;;;5036795;28;20053;-75
2022/03/28 02:39:57;;;;;;;22.90;10.85;;;5.70;99.90;;;;;;5054904;28;20037;-76
2022/03/28 02:42:23;;;;;;;18.98;10.50;;;5.70;99.90;;;;;;5054457;28;20113;-75
2022/03/28 02:44:52;;;;;;;18.73;9.73;;;5.70;99.90;;;;;;5037163;28;20072;-75
2022/03/28 02:47:19;;;;;;;19.80;10.07;;;5.70;99.90;;;;;;5054962;28;20037;-75
2022/03/28 02:49:45;;;;;;;21.33;10.25;;;5.60;99.90;;;;;;5054691;28;20052;-75
2022/03/28 02:52:10;;;;;;;21.13;10.32;;;5.60;99.90;;;;;;5036990;28;20396;-76
2022/03/28 02:54:36;;;;;;;19.17;10.18;;;5.60;99.90;;;;;;5035871;28;20085;-75
2022/03/28 02:57:02;;;;;;;18.55;8.90;;;5.50;99.90;;;;;;5054739;28;20048;-76
2022/03/28 02:59:28;;;;;;;18.10;9.40;;;5.50;99.90;;;;;;5054662;28;20433;-76
2022/03/28 03:01:54;;;;;;;22.35;9.32;;;5.50;99.90;;;;;;5054757;28;20091;-76
2022/03/28 03:04:20;;;;;;;16.85;9.05;;;5.40;99.90;;;;;;5054603;28;20037;-75
2022/03/28 03:06:46;;;;;;;22.15;10.13;;;5.50;99.90;;;;;;5054459;28;20607;-75
2022/03/28 03:09:12;;;;;;;20.05;10.18;;;5.40;99.90;;;;;;5054396;28;20416;-76
2022/03/28 03:11:37;;;;;;;20.45;9.27;;;5.40;99.90;;;;;;5054408;28;20037;-75
2022/03/28 03:14:04;;;;;;;19.92;10.20;;;5.40;99.90;;;;;;5054066;28;20056;-76
2022/03/28 03:16:30;;;;;;;19.58;10.60;;;5.40;99.90;;;;;;5054101;28;20102;-76
2022/03/28 03:18:56;;;;;;;20.65;10.25;;;5.40;99.90;;;;;;5054379;28;20077;-73
2022/03/28 03:21:22;;;;;;;20.88;10.43;;;5.40;99.90;;;;;;5053996;28;20098;-74
2022/03/28 03:23:47;;;;;;;19.38;10.30;;;5.50;99.90;;;;;;5036386;28;20045;-76
2022/03/28 03:26:13;;;;;;;22.40;10.20;;;5.50;99.90;;;;;;5054131;28;20087;-76
2022/03/28 03:28:39;;;;;;;19.58;10.65;;;5.40;99.90;;;;;;5054303;28;20041;-76
2022/03/28 03:31:06;;;;;;;20.95;10.00;;;5.50;99.90;;;;;;5053699;28;20403;-76
2022/03/28 03:33:32;;;;;;;18.50;9.88;;;5.50;99.90;;;;;;5054439;28;20056;-76
2022/03/28 03:36:00;;;;;;;20.52;10.57;;;5.70;99.90;;;;;;5054345;28;20112;-76
2022/03/28 03:38:26;;;;;;;19.42;9.73;;;5.50;99.90;;;;;;5054221;28;20412;-76
2022/03/28 03:40:53;;;;;;;20.10;8.75;;;5.40;99.90;;;;;;5054176;28;20554;-72
2022/03/28 03:43:18;;;;;;;20.90;9.60;;;5.40;99.90;;;;;;5036747;28;20044;-76
2022/03/28 03:45:45;;;;;;;17.88;8.43;;;5.80;99.90;;;;;;5053820;28;20044;-75
2022/03/28 03:48:11;;;;;;;16.60;8.75;;;5.40;99.90;;;;;;5054241;28;20067;-76
2022/03/28 03:50:37;;;;;;;18.58;9.55;;;5.40;99.90;;;;;;5054434;28;20125;-76
2022/03/28 03:53:02;;;;;;;21.83;8.82;;;5.40;99.90;;;;;;5053691;28;20087;-75
2022/03/28 03:55:28;;;;;;;22.88;9.50;;;5.40;99.90;;;;;;5054365;28;20056;-75
2022/03/28 03:57:54;;;;;;;18.05;9.40;;;5.30;99.90;;;;;;5035999;28;20445;-75
2022/03/28 04:00:20;;;;;;;20.92;9.00;;;5.40;99.90;;;;;;5037772;28;20041;-76
2022/03/28 04:02:45;;;;;;;19.70;9.50;;;5.40;99.90;;;;;;5042041;28;20077;-77
2022/03/28 04:05:12;;;;;;;19.23;9.35;;;5.40;99.90;;;;;;5070002;28;20037;-76
2022/03/28 04:07:37;;;;;;;18.02;8.85;;;5.30;99.90;;;;;;5052375;28;20056;-76
2022/03/28 04:10:03;;;;;;;20.60;9.45;;;5.40;99.90;;;;;;5070908;28;20064;-76
2022/03/28 04:12:29;;;;;;;19.73;8.85;;;5.30;99.90;;;;;;5066435;28;20052;-75
2022/03/28 04:14:58;;;;;;;21.33;9.27;;;5.40;99.90;;;;;;5037479;28;20081;-76
2022/03/28 04:17:25;;;;;;;19.77;9.10;;;5.40;99.90;;;;;;5054843;28;20519;-76
2022/03/28 04:19:50;;;;;;;19.73;9.05;;;5.30;99.90;;;;;;5034732;28;20045;-76
2022/03/28 04:22:16;;;;;;;18.83;8.88;;;5.30;99.90;;;;;;5053140;28;20056;-75
2022/03/28 04:24:41;;;;;;;23.73;10.13;;;5.30;99.90;;;;;;5053335;28;20132;-76
2022/03/28 04:27:07;;;;;;;18.15;9.38;;;5.30;99.90;;;;;;5035729;28;20400;-76
2022/03/28 04:29:33;;;;;;;19.20;8.45;;;5.60;99.90;;;;;;5035420;28;20053;-76
2022/03/28 04:31:59;;;;;;;18.75;9.43;;;5.20;99.90;;;;;;5034779;28;20041;-75
2022/03/28 04:34:24;;;;;;;23.75;11.20;;;5.20;99.90;;;;;;5052247;28;20045;-75
2022/03/28 04:36:50;;;;;;;20.83;10.05;;;5.20;99.90;;;;;;5052756;28;20041;-76
2022/03/28 04:39:15;;;;;;;20.20;9.40;;;5.90;99.90;;;;;;5052494;28;20098;-76
2022/03/28 04:41:41;;;;;;;19.17;8.23;;;5.60;99.90;;;;;;5035339;28;20119;-76
2022/03/28 04:44:07;;;;;;;23.35;9.48;;;5.30;99.90;;;;;;5052776;28;20125;-75
2022/03/28 04:46:32;;;;;;;18.35;8.50;;;5.30;99.90;;;;;;5052957;28;20045;-76
2022/03/28 04:48:58;;;;;;;18.15;8.95;;;5.70;99.90;;;;;;5052770;28;20068;-77
2022/03/28 04:51:24;;;;;;;21.48;8.38;;;5.70;99.90;;;;;;5035677;28;20076;-73
2022/03/28 04:53:50;;;;;;;18.40;8.20;;;5.20;99.90;;;;;;5035675;28;20444;-73
2022/03/28 04:56:15;;;;;;;21.17;8.82;;;5.20;99.90;;;;;;5052832;28;20089;-76
2022/03/28 04:58:41;;;;;;;17.67;7.95;;;5.20;99.90;;;;;;5053295;28;20072;-77
2022/03/28 05:01:08;;;;;;;21.10;8.45;;;5.40;99.90;;;;;;5034465;28;20574;-75
2022/03/28 05:03:34;;;;;;;19.33;8.48;;;5.20;99.90;;;;;;5052724;28;20511;-76
2022/03/28 05:05:59;;;;;;;18.45;8.05;;;5.20;99.90;;;;;;5051880;28;20116;-73
2022/03/28 05:08:25;;;;;;;19.70;6.40;;;5.20;99.90;;;;;;5052613;28;20392;-75
2022/03/28 05:10:51;;;;;;;13.93;4.78;;;5.20;99.90;;;;;;5045377;28;20478;-75
2022/03/28 05:13:16;;;;;;;16.40;4.55;;;5.20;99.90;;;;;;5041157;28;20049;-74
2022/03/28 05:15:42;;;;;;;14.18;4.65;;;5.20;99.90;;;;;;5015018;28;20144;-75
2022/03/28 05:18:07;;;;;;;12.85;4.22;;;5.20;99.90;;;;;;5032294;28;20042;-75
2022/03/28 05:20:33;;;;;;;13.07;3.60;;;5.10;99.90;;;;;;5031920;28;20040;-74
2022/03/28 05:22:59;;;;;;;12.57;4.22;;;5.20;99.90;;;;;;5032267;28;20045;-74
2022/03/28 05:25:24;;;;;;;12.80;3.47;;;5.20;99.90;;;;;;5032389;28;20049;-76
2022/03/28 05:27:50;;;;;;;11.90;3.83;;;5.20;99.90;;;;;;5037777;28;20041;-73
2022/03/28 05:30:19;;;;;;;11.80;4.78;;;5.20;99.90;;;;;;5048313;28;20400;-75
2022/03/28 05:32:45;;;;;;;11.05;3.15;;;5.10;99.90;;;;;;5040823;28;20051;-73
2022/03/28 05:35:10;;;;;;;10.40;2.60;;;5.10;99.90;;;;;;5024289;28;20041;-72
2022/03/28 05:37:36;;;;;;;10.07;3.22;;;5.10;99.90;;;;;;5025143;28;20124;-74
2022/03/28 05:40:04;;;;;;;9.50;3.00;;;5.10;99.90;;;;;;5046627;28;20041;-75
2022/03/28 05:42:30;;;;;;;10.68;3.15;;;5.10;99.90;;;;;;5052106;28;20114;-76
2022/03/28 05:44:55;;;;;;;11.40;3.20;;;5.10;99.90;;;;;;5034199;28;20045;-75
2022/03/28 05:47:21;;;;;;;10.52;3.25;;;5.20;99.90;;;;;;5052131;28;20159;-75
2022/03/28 05:49:46;;;;;;;11.43;3.45;;;5.20;99.90;;;;;;5052106;28;20080;-75
2022/03/28 05:52:12;;;;;;;11.30;3.33;;;5.20;99.90;;;;;;5033960;28;20052;-74
2022/03/28 05:54:38;;;;;;;10.05;2.60;;;5.10;99.90;;;;;;5051537;28;20052;-74
2022/03/28 05:57:05;;;;;;;10.30;3.25;;;5.10;99.90;;;;;;5037302;28;20061;-76
2022/03/28 05:59:31;;;;;;;7.72;2.50;;;5.10;99.90;;;;;;5055928;28;20063;-76
2022/03/28 06:01:57;;;;;;;9.73;3.13;;;5.10;99.90;;;;;;5055594;28;20049;-75
2022/03/28 06:04:22;;;;;;;9.82;2.83;;;5.00;99.90;;;;;;5058998;28;20064;-76
2022/03/28 06:06:48;;;;;;;9.02;2.70;;;5.00;99.90;;;;;;5056188;28;20036;-75
2022/03/28 06:09:14;;;;;;;9.50;3.00;;;5.00;99.90;;;;;;5048898;28;20508;-76
2022/03/28 06:11:39;;;;;;;11.25;3.45;;;5.00;99.90;;;;;;5059182;28;20175;-76
2022/03/28 06:14:05;;;;;;;7.25;2.45;;;4.90;99.90;;;;;;5057399;28;20120;-75
2022/03/28 06:16:31;;;;;;;10.48;2.75;;;5.00;99.90;;;;;;5055861;28;20388;-73
2022/03/28 06:18:57;;;;;;;9.05;3.40;;;5.00;99.90;;;;;;5037516;28;20076;-75
2022/03/28 06:21:22;;;;;;;9.57;2.92;;;5.00;99.90;;;;;;5055705;28;20362;-76
2022/03/28 06:23:48;;;;;;;9.27;2.72;;;5.00;99.90;;;;;;5055472;28;20044;-75
2022/03/28 06:26:14;;;;;;;9.85;2.75;;;5.00;99.90;;;;;;5054763;28;20056;-74
2022/03/28 06:28:40;;;;;;;9.98;3.10;;;5.00;99.90;;;;;;5055069;28;20033;-75
2022/03/28 06:31:09;;;;;;;8.60;2.30;;;5.00;99.90;;;;;;5037095;28;20049;-73
2022/03/28 06:33:35;;;;;;;9.57;2.78;;;5.00;99.90;;;;;;5055098;28;20142;-74
2022/03/28 06:36:02;;;;;;;8.00;2.63;;;4.90;99.90;;;;;;5037017;28;20044;-75
2022/03/28 06:38:27;;;;;;;7.63;2.45;;;4.90;99.90;;;;;;5054766;28;20045;-77
2022/03/28 06:40:53;;;;;;;6.63;2.08;;;4.90;99.90;;;;;;5030942;28;20049;-75
2022/03/28 06:43:19;;;;;;;7.85;2.53;;;5.00;99.90;;;;;;5015582;28;20053;-73
2022/03/28 06:45:45;;;;;;;10.20;3.03;;;4.90;99.90;;;;;;5016920;28;20060;-76
2022/03/28 06:48:11;;;;;;;6.70;2.17;;;4.90;99.90;;;;;;5034264;28;20042;-75
2022/03/28 06:50:37;;;;;;;7.63;2.17;;;5.40;99.90;;;;;;5015704;28;20379;-76
2022/03/28 06:53:03;;;;;;;7.75;2.25;;;4.80;99.90;;;;;;5034357;28;20037;-73
2022/03/28 06:55:29;;;;;;;8.63;2.70;;;4.90;99.90;;;;;;5014917;28;20055;-75
2022/03/28 06:57:58;;;;;;;10.90;3.22;;;4.90;99.90;;;;;;5032891;28;20061;-70
2022/03/28 07:00:23;;;;;;;7.13;2.35;;;4.80;99.90;;;;;;5032808;28;20049;-70
2022/03/28 07:02:49;;;;;;;10.57;3.38;;;5.10;99.90;;;;;;5033223;28;20045;-71
2022/03/28 07:05:15;;;;;;;9.85;3.10;;;4.80;99.90;;;;;;5032869;28;20044;-76
2022/03/28 07:07:48;;;;;;;9.38;2.92;;;4.80;99.90;;;;;;5031797;28;20095;-72
2022/03/28 07:10:18;;;;;;;9.45;2.50;;;4.90;99.90;;;;;;5033031;28;20068;-72
2022/03/28 07:12:44;;;;;;;9.70;3.15;;;4.90;99.90;;;;;;5032458;28;20100;-74
2022/03/28 07:15:12;;;;;;;12.43;3.15;;;4.90;99.90;;;;;;5032918;28;20089;-73
2022/03/28 07:17:55;;;;;;;12.43;3.60;;;5.00;99.90;;;;;;5014956;28;20088;-74
2022/03/28 07:20:22;;;;;;;11.75;3.42;;;5.00;99.90;;;;;;5015467;28;20042;-75
2022/03/28 07:22:48;;;;;;;9.50;3.08;;;5.00;99.90;;;;;;5033333;28;20041;-74
2022/03/28 07:25:14;;;;;;;9.82;2.92;;;5.00;99.90;;;;;;5015355;28;20054;-74
2022/03/28 07:27:41;;;;;;;11.05;3.28;;;5.10;99.90;;;;;;5033073;28;20099;-72
2022/03/28 07:30:09;;;;;;;9.70;3.58;;;5.00;99.90;;;;;;5032812;28;20107;-74
2022/03/28 07:32:35;;;;;;;11.32;3.72;;;5.00;99.90;;;;;;5032888;28;20143;-75
2022/03/28 07:35:01;;;;;;;9.52;3.05;;;5.00;99.90;;;;;;5033325;28;20132;-74
2022/03/28 07:37:27;;;;;;;10.00;3.25;;;5.10;99.90;;;;;;5015280;28;20060;-75
2022/03/28 07:39:53;;;;;;;9.63;3.30;;;5.00;99.90;;;;;;5033118;28;20405;-74
2022/03/28 07:42:18;;;;;;;10.55;3.22;;;5.00;99.90;;;;;;5032727;28;20079;-69
2022/03/28 07:44:44;;;;;;;9.43;3.03;;;5.70;99.90;;;;;;5032482;28;20041;-72
2022/03/28 07:47:10;;;;;;;8.68;2.90;;;5.00;99.90;;;;;;5015134;28;20060;-72
2022/03/28 07:49:38;;;;;;;9.85;3.38;;;5.10;99.90;;;;;;5033498;28;20060;-71
2022/03/28 07:52:06;;;;;;;11.40;2.75;;;5.10;99.90;;;;;;5015799;28;20048;-74
2022/03/28 07:54:32;;;;;;;9.27;2.72;;;5.20;99.90;;;;;;5035233;28;20137;-70
2022/03/28 07:56:58;;;;;;;9.45;3.47;;;5.20;99.90;;;;;;5017479;28;20065;-70
2022/03/28 07:59:24;;;;;;;7.95;2.63;;;5.20;99.90;;;;;;5010782;28;20029;-74
2022/03/28 08:01:51;;;;;;;7.43;2.22;;;5.30;99.90;;;;;;5040068;28;20028;-72
2022/03/28 08:04:17;;;;;;;7.90;2.25;;;5.40;99.90;;;;;;5055991;28;20087;-69
2022/03/28 08:06:43;;;;;;;9.45;3.03;;;5.40;99.90;;;;;;5043916;28;20047;-72
2022/03/28 08:09:09;;;;;;;9.30;2.97;;;5.50;99.90;;;;;;5045145;28;20182;-71
2022/03/28 08:11:35;;;;;;;8.52;2.65;;;5.60;99.90;;;;;;5031312;28;20045;-72
2022/03/28 08:14:02;;;;;;;8.38;2.67;;;5.60;99.90;;;;;;5022818;28;20052;-73
2022/03/28 08:16:28;;;;;;;8.80;2.70;;;5.60;99.90;;;;;;5038972;28;20109;-69
2022/03/28 08:18:54;;;;;;;7.70;1.98;;;5.60;99.90;;;;;;5018278;28;20537;-71
2022/03/28 08:21:19;;;;;;;10.15;3.00;;;5.60;99.90;;;;;;5035060;28;20045;-73
2022/03/28 08:23:45;;;;;;;9.63;3.10;;;5.70;99.90;;;;;;5035125;28;20485;-73
2022/03/28 08:26:11;;;;;;;9.05;2.75;;;5.90;99.90;;;;;;5012734;28;20481;-73
2022/03/28 08:28:36;;;;;;;9.55;3.38;;;5.70;99.90;;;;;;5011635;28;20119;-72
2022/03/28 08:31:03;;;;;;;9.68;3.45;;;5.80;99.90;;;;;;5030354;28;20049;-71
2022/03/28 08:33:28;;;;;;;8.43;3.08;;;5.80;99.90;;;;;;5011354;28;20141;-71
2022/03/28 08:35:54;;;;;;;10.80;2.97;;;5.90;99.90;;;;;;5030367;28;20084;-72
2022/03/28 08:38:21;;;;;;;8.25;2.65;;;6.00;99.90;;;;;;5028549;28;20046;-72
2022/03/28 08:40:48;;;;;;;9.63;3.22;;;6.00;99.90;;;;;;5030270;28;20073;-73
2022/03/28 08:43:21;;;;;;;9.55;3.17;;;6.00;99.90;;;;;;5030455;28;20413;-73
2022/03/28 08:45:51;;;;;;;11.02;3.20;;;5.90;99.90;;;;;;5012078;28;20050;-71
2022/03/28 08:48:17;;;;;;;11.13;3.80;;;5.90;99.90;;;;;;5027676;28;20473;-69
2022/03/28 08:50:46;;;;;;;9.52;3.13;;;5.90;99.90;;;;;;5029933;28;20148;-67
2022/03/28 08:53:13;;;;;;;9.60;3.25;;;5.90;99.90;;;;;;5025698;28;20064;-71
2022/03/28 08:55:44;;;;;;;7.55;2.53;;;6.00;99.90;;;;;;5029692;28;20065;-72
2022/03/28 08:58:11;;;;;;;9.77;3.47;;;6.10;99.90;;;;;;5027646;28;20501;-71
2022/03/28 09:00:37;;;;;;;8.85;2.85;;;6.20;99.90;;;;;;5010492;28;20104;-71
2022/03/28 09:03:03;;;;;;;10.85;3.33;;;6.20;99.90;;;;;;5028979;28;20033;-72
2022/03/28 09:05:34;;;;;;;9.77;2.78;;;6.40;99.90;;;;;;5011184;28;20065;-71
2022/03/28 09:08:01;;;;;;;8.77;2.83;;;6.30;99.90;;;;;;5027455;28;20608;-72
2022/03/28 09:10:34;;;;;;;9.30;3.28;;;6.30;99.90;;;;;;5027281;28;20056;-73
2022/03/28 09:13:11;;;;;;;10.75;2.95;;;6.30;99.90;;;;;;5010800;28;20475;-75
2022/03/28 09:15:44;;;;;;;8.63;3.08;;;6.30;99.90;;;;;;5028569;28;20107;-73
2022/03/28 09:18:39;;;;;;;11.85;3.05;;;6.30;99.90;;;;;;5027634;28;20060;-73
2022/03/28 09:21:07;;;;;;;11.18;3.40;;;6.50;99.90;;;;;;4948172;29;20149;-71
2022/03/28 09:23:40;;;;;;;9.52;3.25;;;6.50;99.90;;;;;;4948726;28;20055;-71
2022/03/28 09:26:12;;;;;;;8.95;3.03;;;6.60;99.90;;;;;;4948709;29;20055;-71
2022/03/28 09:28:37;;;;;;;6.70;2.42;;;6.70;99.90;;;;;;4950171;29;20144;-71
2022/03/28 09:31:30;;;;;;;8.68;3.15;;;6.60;99.90;;;;;;4954587;28;20058;-71
2022/03/28 09:34:01;;;;;;;10.10;3.67;;;6.70;99.90;;;;;;4950435;29;20059;-69
2022/03/28 09:36:41;;;;;;;10.02;3.22;;;6.80;99.90;;;;;;4919743;29;20233;-73
2022/03/28 09:39:28;;;;;;;11.02;3.13;;;6.90;99.90;;;;;;4951949;29;20071;-73
2022/03/28 09:42:10;;;;;;;8.75;3.15;;;7.00;99.90;;;;;;4950989;29;20555;-73
2022/03/28 09:44:44;;;;;;;10.20;4.15;;;7.10;99.90;;;;;;4935737;29;20144;-71
2022/03/28 09:47:14;;;;;;;9.90;4.38;;;7.20;99.90;;;;;;4951436;29;20051;-70
2022/03/28 09:49:42;;;;;;;11.18;3.95;;;7.10;99.90;;;;;;4952385;28;20602;-72
2022/03/28 09:52:14;;;;;;;9.60;3.25;;;7.30;99.90;;;;;;4935707;29;20051;-70
2022/03/28 09:54:51;;;;;;;9.38;4.13;;;7.10;99.90;;;;;;4942502;28;20059;-73
2022/03/28 09:57:32;;;;;;;11.43;4.28;;;7.10;99.90;;;;;;4992148;28;20132;-69
2022/03/28 10:00:09;;;;;;;9.95;3.92;;;7.20;99.90;;;;;;5024509;28;20053;-72
2022/03/28 10:02:35;;;;;;;10.02;3.75;;;7.20;99.90;;;;;;5031821;28;20408;-72
2022/03/28 10:05:02;;;;;;;9.05;3.38;;;7.40;99.90;;;;;;5015808;28;20144;-71
2022/03/28 10:07:28;;;;;;;11.30;4.60;;;7.30;99.90;;;;;;5031909;28;20034;-71
2022/03/28 10:09:54;;;;;;;10.52;4.20;;;7.30;99.90;;;;;;5024847;28;20080;-70
2022/03/28 10:12:22;;;;;;;12.80;3.35;;;7.50;99.90;;;;;;5032242;28;20065;-72
2022/03/28 10:15:01;;;;;;;10.30;4.32;;;7.50;99.90;;;;;;5044386;28;20096;-71
2022/03/28 10:17:29;;;;;;;11.35;4.20;;;7.60;99.90;;;;;;5039409;28;20049;-70
2022/03/28 10:19:56;;;;;;;13.35;4.25;;;7.70;99.90;;;;;;5031532;28;20053;-72
2022/03/28 10:22:29;;;;;;;8.52;3.72;;;7.80;99.90;;;;;;5033165;28;20132;-71
2022/03/28 10:25:00;;;;;;;10.77;3.72;;;7.80;99.90;;;;;;5015605;28;20045;-72
2022/03/28 10:27:27;;;;;;;10.77;3.92;;;7.80;99.90;;;;;;5027980;28;20521;-72
2022/03/28 10:29:53;;;;;;;8.85;3.25;;;8.30;99.90;;;;;;5033007;28;20057;-69
2022/03/28 10:32:20;;;;;;;9.88;3.90;;;8.00;99.90;;;;;;5014888;28;20046;-72
2022/03/28 10:34:52;;;;;;;11.68;4.20;;;8.10;99.90;;;;;;5015362;28;20053;-69
2022/03/28 10:37:48;;;;;;;9.48;3.85;;;8.10;99.90;;;;;;5013368;28;20084;-72
2022/03/28 10:40:31;;;;;;;9.88;4.07;;;8.20;99.90;;;;;;4930560;29;20059;-73
2022/03/28 10:43:11;;;;;;;12.85;4.85;;;8.30;99.90;;;;;;4915426;29;20048;-71
2022/03/28 10:45:41;;;;;;;11.07;4.32;;;8.30;99.90;;;;;;4916180;29;20052;-72
2022/03/28 10:48:09;;;;;;;9.32;3.80;;;8.30;99.90;;;;;;4930241;29;20063;-72
2022/03/28 10:50:42;;;;;;;10.40;4.03;;;8.20;99.90;;;;;;4932572;29;20103;-71
2022/03/28 10:53:19;;;;;;;9.23;4.00;;;8.30;99.90;;;;;;4932530;29;20079;-71
2022/03/28 10:55:44;;;;;;;10.95;3.97;;;8.30;99.90;;;;;;4931346;29;20071;-71
2022/03/28 10:58:18;;;;;;;11.52;4.25;;;8.30;99.90;;;;;;4914878;29;20143;-68
2022/03/28 11:01:05;;;;;;;9.10;3.65;;;8.30;99.90;;;;;;4916056;29;20070;-70
2022/03/28 11:03:47;;;;;;;9.55;3.83;;;8.40;99.90;;;;;;4921486;29;20052;-72
2022/03/28 11:06:19;;;;;;;11.20;4.88;;;8.50;99.90;;;;;;4936686;29;20480;-70
2022/03/28 11:08:57;;;;;;;;;;;8.50;99.90;;;;;;4932956;29;20567;-72
2022/03/28 11:11:30;;;;;;;9.75;3.55;;;8.50;99.90;;;;;;4936580;29;20309;-71
2022/03/28 11:14:12;;;;;;;9.13;3.95;;;8.60;99.90;;;;;;4932127;29;20056;-71
2022/03/28 11:16:42;;;;;;;12.02;4.20;;;8.80;99.90;;;;;;4977619;28;20807;-72
2022/03/28 11:19:32;;;;;;;9.88;4.15;;;8.80;99.90;;;;;;5029869;28;20115;-73
2022/03/28 11:22:04;;;;;;;10.93;3.80;;;8.90;99.90;;;;;;5013057;28;20512;-74
2022/03/28 11:24:49;;;;;;;11.27;4.90;;;9.00;99.90;;;;;;5012586;28;20046;-71
2022/03/28 11:27:16;;;;;;;10.95;4.20;;;9.10;99.90;;;;;;5011364;28;20128;-73
2022/03/28 11:29:44;;;;;;;10.00;4.03;;;9.20;99.90;;;;;;5012403;28;20096;-73
2022/03/28 11:32:17;;;;;;;13.13;4.43;;;9.20;99.90;;;;;;5031156;28;20068;-71
2022/03/28 11:34:54;;;;;;;10.98;3.70;;;9.40;99.90;;;;;;5012564;28;20076;-72
2022/03/28 11:37:25;;;;;;;11.77;4.75;;;9.50;99.90;;;;;;5011129;28;20045;-73
2022/03/28 11:40:07;;;;;;;9.27;4.15;;;9.50;99.90;;;;;;5013181;28;20056;-72
2022/03/28 11:42:36;;;;;;;10.90;4.45;;;9.60;99.90;;;;;;5011820;28;20053;-72
2022/03/28 11:45:12;;;;;;;12.02;4.20;;;9.60;99.90;;;;;;5031240;28;20037;-73
2022/03/28 11:47:48;;;;;;;10.63;4.45;;;9.50;99.90;;;;;;5028610;28;20054;-72
2022/03/28 11:50:14;;;;;;;11.55;3.90;;;9.60;99.90;;;;;;5012075;28;20053;-71
2022/03/28 11:52:40;;;;;;;12.05;4.85;;;10.10;99.90;;;;;;5030534;28;20084;-72
2022/03/28 11:55:19;;;;;;;14.60;5.47;;;9.90;99.90;;;;;;5012600;28;20037;-72
2022/03/28 12:00:34;;;;;;;9.50;3.55;;;10.20;99.90;;;;;;5032523;28;20132;-70
2022/03/28 12:03:00;;;;;;;11.95;4.45;;;10.20;99.90;;;;;;5048484;28;20061;-74
2022/03/28 12:05:31;;;;;;;12.82;5.47;;;10.30;99.90;;;;;;5048228;28;20032;-70
2022/03/28 12:07:59;;;;;;;12.10;4.93;;;10.40;99.90;;;;;;5041090;28;20056;-69
2022/03/28 12:10:31;;;;;;;13.88;5.85;;;10.70;99.90;;;;;;5039920;28;20042;-72
2022/03/28 12:13:05;;;;;;;11.45;5.40;;;10.80;99.90;;;;;;5013878;28;20115;-72
2022/03/28 12:15:40;;;;;;;10.02;4.40;;;10.60;99.90;;;;;;5031373;28;20509;-72
2022/03/28 12:18:09;;;;;;;11.20;5.10;;;10.40;99.90;;;;;;5030118;28;20033;-71
2022/03/28 12:20:40;;;;;;;11.50;5.10;;;10.40;99.90;;;;;;5026664;28;20374;-71
2022/03/28 12:23:07;;;;;;;12.85;4.50;;;10.70;99.90;;;;;;5031201;28;20041;-71
2022/03/28 12:25:42;;;;;;;9.60;3.72;;;11.10;99.90;;;;;;5030587;28;20037;-72
2022/03/28 12:28:14;;;;;;;9.55;4.20;;;11.40;99.90;;;;;;4991637;28;20049;-71
2022/03/28 12:30:42;;;;;;;12.30;5.32;;;11.70;99.90;;;;;;5011445;28;20089;-72
2022/03/28 12:33:15;;;;;;;11.95;5.53;;;11.80;99.90;;;;;;5012143;28;20125;-71
2022/03/28 12:35:43;;;;;;;11.95;5.30;;;11.90;99.90;;;;;;5012332;28;20215;-72
2022/03/28 12:38:18;;;;;;;11.13;5.07;;;12.00;99.90;;;;;;5028962;28;20044;-72
2022/03/28 12:40:45;;;;;;;13.32;5.50;;;12.10;99.90;;;;;;5030410;28;20076;-70
2022/03/28 12:43:12;;;;;;;12.00;5.50;;;12.20;99.90;;;;;;5031197;28;20041;-72
2022/03/28 12:45:39;;;;;;;11.48;5.30;;;12.00;99.90;;;;;;5029816;28;20057;-71
2022/03/28 12:48:07;;;;;;;12.13;5.40;;;11.70;99.90;;;;;;5029435;28;20041;-71
2022/03/28 12:50:34;;;;;;;10.95;4.75;;;11.60;99.90;;;;;;5025252;28;20048;-78
2022/03/28 12:53:11;;;;;;;12.77;5.03;;;11.60;99.90;;;;;;5012857;28;20056;-76
2022/03/28 12:55:43;;;;;;;13.30;5.43;;;11.50;99.90;;;;;;5012731;28;20045;-78
2022/03/28 12:58:13;;;;;;;12.02;5.30;;;11.70;99.90;;;;;;5011935;28;20060;-76